createdAt,value
2022-12-10T00:00:01.637Z,80.57
2022-12-10T00:02:28.766Z,80.15
2022-12-10T00:04:56.052Z,80.31
2022-12-10T00:07:24.908Z,80.05
2022-12-10T00:09:52.076Z,80.11
2022-12-10T00:12:19.125Z,79.33
2022-12-10T00:14:46.193Z,79.00
2022-12-10T00:17:13.365Z,79.06
2022-12-10T00:19:40.384Z,79.17
2022-12-10T00:22:07.370Z,78.99
2022-12-10T00:24:34.376Z,78.67
2022-12-10T00:27:01.519Z,78.59
2022-12-10T00:29:31.246Z,78.35
2022-12-10T00:31:58.191Z,77.66
2022-12-10T00:34:25.172Z,77.57
2022-12-10T00:36:52.190Z,77.29
2022-12-10T00:39:21.983Z,76.89
2022-12-10T00:41:49.158Z,76.97
2022-12-10T00:44:17.109Z,76.52
2022-12-10T00:46:44.654Z,76.94
2022-12-10T00:49:12.590Z,77.36
2022-12-10T00:51:40.315Z,76.78
2022-12-10T00:54:09.029Z,77.27
2022-12-10T00:56:36.541Z,76.96
2022-12-10T00:59:03.880Z,77.21
2022-12-10T01:01:42.891Z,76.99
2022-12-10T01:04:15.966Z,76.75
2022-12-10T01:06:49.689Z,77.06
2022-12-10T01:09:20.919Z,76.94
2022-12-10T01:11:49.923Z,76.79
2022-12-10T01:14:21.642Z,76.47
2022-12-10T01:16:49.483Z,76.69
2022-12-10T01:19:17.133Z,77.06
2022-12-10T01:21:44.627Z,77.31
2022-12-10T01:24:11.814Z,77.04
2022-12-10T01:26:38.925Z,77.28
2022-12-10T01:29:06.681Z,77.42
2022-12-10T01:31:36.305Z,77.21
2022-12-10T01:34:05.344Z,77.51
2022-12-10T01:36:38.580Z,77.36
2022-12-10T01:39:07.893Z,77.60
2022-12-10T01:41:38.472Z,77.46
2022-12-10T01:44:11.381Z,77.21
2022-12-10T01:46:43.540Z,77.35
2022-12-10T01:49:16.725Z,77.45
2022-12-10T01:51:49.621Z,77.35
2022-12-10T01:54:25.192Z,77.09
2022-12-10T01:57:00.173Z,77.12
2022-12-10T01:59:28.186Z,76.70
2022-12-10T02:02:23.950Z,76.73
2022-12-10T02:05:06.262Z,76.77
2022-12-10T02:07:56.511Z,76.34
2022-12-10T02:10:51.512Z,75.45
2022-12-10T02:13:42.888Z,75.77
2022-12-10T02:16:16.280Z,75.84
2022-12-10T02:18:53.123Z,75.27
2022-12-10T02:21:26.054Z,74.79
2022-12-10T02:24:12.677Z,74.39
2022-12-10T02:27:07.774Z,74.25
2022-12-10T02:29:35.502Z,74.66
2022-12-10T02:32:10.321Z,74.28
2022-12-10T02:34:42.633Z,73.68
2022-12-10T02:37:17.161Z,73.98
2022-12-10T02:39:49.704Z,73.32
2022-12-10T02:42:19.529Z,73.75
2022-12-10T02:44:49.841Z,73.58
2022-12-10T02:47:18.955Z,73.76
2022-12-10T02:49:49.185Z,73.81
2022-12-10T02:52:20.326Z,73.83
2022-12-10T02:54:49.463Z,74.00
2022-12-10T02:57:37.820Z,73.96
2022-12-10T03:00:23.177Z,73.87
2022-12-10T03:03:19.245Z,73.70
2022-12-10T03:05:56.931Z,73.97
2022-12-10T03:08:50.857Z,73.42
2022-12-10T03:11:24.613Z,74.47
2022-12-10T03:14:14.545Z,74.63
2022-12-10T03:16:46.756Z,74.52
2022-12-10T03:19:19.344Z,74.75
2022-12-10T03:21:51.193Z,75.24
2022-12-10T03:24:19.545Z,75.08
2022-12-10T03:26:49.494Z,75.28
2022-12-10T03:29:23.601Z,75.70
2022-12-10T03:31:53.193Z,75.37
2022-12-10T03:34:20.941Z,75.70
2022-12-10T03:36:48.997Z,76.16
2022-12-10T03:39:17.410Z,76.72
2022-12-10T03:41:44.663Z,76.66
2022-12-10T03:44:11.793Z,77.19
2022-12-10T03:46:39.606Z,77.47
2022-12-10T03:49:07.007Z,77.67
2022-12-10T03:51:33.995Z,77.70
2022-12-10T03:54:01.180Z,77.99
2022-12-10T03:56:28.313Z,77.57
2022-12-10T03:58:55.327Z,77.37
2022-12-10T04:01:22.413Z,77.53
2022-12-10T04:03:49.551Z,77.74
2022-12-10T04:06:19.728Z,78.05
2022-12-10T04:08:48.258Z,78.15
2022-12-10T04:11:17.119Z,78.49
2022-12-10T04:14:03.181Z,78.70
2022-12-10T04:16:32.096Z,79.19
2022-12-10T04:19:08.059Z,78.77
2022-12-10T04:21:55.640Z,78.65
2022-12-10T04:24:44.069Z,78.99
2022-12-10T04:27:14.324Z,79.13
2022-12-10T04:29:41.524Z,78.74
2022-12-10T04:32:09.203Z,78.88
2022-12-10T04:34:43.825Z,78.81
2022-12-10T04:37:12.554Z,79.22
2022-12-10T04:39:40.533Z,78.67
2022-12-10T04:42:09.507Z,78.64
2022-12-10T04:44:37.261Z,78.74
2022-12-10T04:47:06.254Z,78.53
2022-12-10T04:49:33.790Z,78.91
2022-12-10T04:52:01.186Z,78.64
2022-12-10T04:54:29.308Z,78.61
2022-12-10T04:56:57.456Z,78.41
2022-12-10T04:59:25.011Z,78.94
2022-12-10T05:01:52.640Z,78.67
2022-12-10T05:04:20.487Z,78.26
2022-12-10T05:06:50.149Z,78.05
2022-12-10T05:09:17.945Z,78.02
2022-12-10T05:11:47.914Z,78.04
2022-12-10T05:14:16.393Z,77.65
2022-12-10T05:16:43.751Z,77.62
2022-12-10T05:19:11.812Z,77.71
2022-12-10T05:21:57.758Z,77.70
2022-12-10T05:24:24.754Z,77.90
2022-12-10T05:26:54.618Z,77.65
2022-12-10T05:29:21.701Z,77.97
2022-12-10T05:31:48.652Z,77.77
2022-12-10T05:34:16.062Z,77.89
2022-12-10T05:36:43.165Z,77.90
2022-12-10T05:39:11.932Z,77.65
2022-12-10T05:41:40.611Z,78.02
2022-12-10T05:44:09.099Z,77.94
2022-12-10T05:46:37.084Z,77.45
2022-12-10T05:49:06.621Z,77.46
2022-12-10T05:51:36.272Z,77.67
2022-12-10T05:54:04.589Z,77.63
2022-12-10T05:56:32.389Z,77.52
2022-12-10T05:59:02.540Z,77.67
2022-12-10T06:01:36.891Z,77.32
2022-12-10T06:04:06.163Z,77.18
2022-12-10T06:06:38.353Z,76.98
2022-12-10T06:09:07.190Z,77.06
2022-12-10T06:11:34.960Z,77.14
2022-12-10T06:14:03.030Z,76.70
2022-12-10T06:16:30.258Z,77.02
2022-12-10T06:18:58.600Z,77.28
2022-12-10T06:21:26.070Z,77.08
2022-12-10T06:23:54.222Z,76.90
2022-12-10T06:26:26.837Z,77.76
2022-12-10T06:28:55.183Z,77.13
2022-12-10T06:31:23.428Z,77.17
2022-12-10T06:33:50.754Z,77.65
2022-12-10T06:36:18.651Z,77.22
2022-12-10T06:38:46.903Z,77.26
2022-12-10T06:41:18.355Z,77.13
2022-12-10T06:43:48.230Z,77.58
2022-12-10T06:46:17.987Z,77.31
2022-12-10T06:48:46.212Z,77.09
2022-12-10T06:51:14.379Z,77.24
2022-12-10T06:53:42.551Z,76.91
2022-12-10T06:56:13.678Z,76.75
2022-12-10T06:58:43.329Z,77.07
2022-12-10T07:01:16.296Z,76.89
2022-12-10T07:03:44.363Z,76.88
2022-12-10T07:06:13.007Z,77.01
2022-12-10T07:08:40.087Z,77.01
2022-12-10T07:11:09.257Z,77.15
2022-12-10T07:13:37.501Z,77.28
2022-12-10T07:16:12.732Z,76.95
2022-12-10T07:18:39.913Z,77.14
2022-12-10T07:21:30.398Z,77.26
2022-12-10T07:24:03.321Z,77.77
2022-12-10T07:26:32.001Z,78.04
2022-12-10T07:29:03.250Z,78.15
2022-12-10T07:31:30.447Z,77.70
2022-12-10T07:33:59.593Z,77.27
2022-12-10T07:36:27.782Z,77.59
2022-12-10T07:38:55.723Z,77.41
2022-12-10T07:41:24.410Z,77.43
2022-12-10T07:43:52.257Z,77.67
2022-12-10T07:46:22.913Z,77.50
2022-12-10T07:48:50.649Z,77.87
2022-12-10T07:51:20.121Z,77.31
2022-12-10T07:53:47.132Z,77.81
2022-12-10T07:56:14.291Z,77.16
2022-12-10T07:58:46.140Z,77.06
2022-12-10T08:01:16.718Z,77.78
2022-12-10T08:03:44.444Z,76.91
2022-12-10T08:06:14.934Z,76.98
2022-12-10T08:08:43.219Z,77.05
2022-12-10T08:11:11.328Z,78.85
2022-12-10T08:13:38.900Z,77.23
2022-12-10T08:16:13.393Z,76.38
2022-12-10T08:18:44.028Z,75.49
2022-12-10T08:21:20.003Z,74.62
2022-12-10T08:23:47.682Z,74.74
2022-12-10T08:26:23.646Z,74.04
2022-12-10T08:28:51.824Z,73.31
2022-12-10T08:31:22.016Z,72.93
2022-12-10T08:33:49.145Z,72.62
2022-12-10T08:36:17.605Z,72.17
2022-12-10T08:38:45.420Z,71.47
2022-12-10T08:41:15.206Z,69.38
2022-12-10T08:43:42.746Z,66.29
2022-12-10T08:46:10.376Z,65.86
2022-12-10T08:48:38.316Z,65.46
2022-12-10T08:51:07.442Z,66.27
2022-12-10T08:53:34.957Z,66.08
2022-12-10T08:56:03.045Z,67.38
2022-12-10T08:58:30.211Z,68.08
2022-12-10T09:00:57.353Z,68.63
2022-12-10T09:03:25.179Z,69.94
2022-12-10T09:05:52.347Z,70.39
2022-12-10T09:08:19.784Z,70.09
2022-12-10T09:10:46.924Z,70.73
2022-12-10T09:13:13.897Z,70.98
2022-12-10T09:15:41.045Z,71.63
2022-12-10T09:18:08.078Z,71.95
2022-12-10T09:20:35.157Z,71.89
2022-12-10T09:23:02.587Z,72.31
2022-12-10T09:25:29.616Z,71.58
2022-12-10T09:27:59.357Z,71.64
2022-12-10T09:30:26.917Z,71.46
2022-12-10T09:32:54.206Z,71.81
2022-12-10T09:35:21.198Z,71.77
2022-12-10T09:37:48.644Z,71.10
2022-12-10T09:40:27.642Z,71.20
2022-12-10T09:43:05.515Z,69.90
2022-12-10T09:45:42.860Z,69.14
2022-12-10T09:48:36.265Z,68.46
2022-12-10T09:51:06.608Z,67.49
2022-12-10T09:53:34.357Z,66.73
2022-12-10T09:56:02.088Z,66.57
2022-12-10T09:58:30.365Z,66.13
2022-12-10T10:01:04.516Z,65.65
2022-12-10T10:03:41.850Z,65.84
2022-12-10T10:06:15.772Z,64.83
2022-12-10T10:08:47.730Z,64.44
2022-12-10T10:11:22.129Z,64.29
2022-12-10T10:14:17.586Z,64.45
2022-12-10T10:16:50.477Z,64.22
2022-12-10T10:19:21.381Z,64.52
2022-12-10T10:21:51.215Z,64.68
2022-12-10T10:24:22.985Z,65.28
2022-12-10T10:26:51.404Z,64.84
2022-12-10T10:29:23.135Z,64.86
2022-12-10T10:32:15.196Z,64.75
2022-12-10T10:34:43.592Z,64.03
2022-12-10T10:37:32.575Z,64.93
2022-12-10T10:40:00.269Z,65.15
2022-12-10T10:42:36.462Z,65.87
2022-12-10T10:45:27.426Z,66.27
2022-12-10T10:48:12.125Z,66.88
2022-12-10T10:50:42.034Z,66.51
2022-12-10T10:53:31.277Z,66.80
2022-12-10T10:56:07.029Z,66.34
2022-12-10T10:58:34.736Z,66.18
2022-12-10T11:01:08.869Z,66.15
2022-12-10T11:03:45.849Z,67.05
2022-12-10T11:06:14.357Z,66.37
2022-12-10T11:08:44.553Z,67.20
2022-12-10T11:11:19.964Z,66.86
2022-12-10T11:13:47.582Z,67.60
2022-12-10T11:16:22.673Z,66.92
2022-12-10T11:19:02.424Z,66.70
2022-12-10T11:21:31.885Z,67.34
2022-12-10T11:23:59.759Z,66.81
2022-12-10T11:26:39.714Z,66.95
2022-12-10T11:29:33.819Z,66.74
2022-12-10T11:32:54.405Z,67.70
2022-12-10T11:36:07.719Z,67.62
2022-12-10T11:39:11.714Z,67.98
2022-12-10T11:41:48.222Z,68.38
2022-12-10T11:44:54.024Z,69.13
2022-12-10T11:47:46.767Z,68.77
2022-12-10T11:50:47.602Z,69.23
2022-12-10T11:53:32.093Z,68.98
2022-12-10T11:56:32.936Z,68.93
2022-12-10T11:59:11.697Z,69.12
2022-12-10T12:02:33.119Z,69.25
2022-12-10T12:05:17.918Z,69.59
2022-12-10T12:07:48.111Z,69.90
2022-12-10T12:10:30.056Z,69.63
2022-12-10T12:13:24.967Z,69.49
2022-12-10T12:15:59.416Z,69.74
2022-12-10T12:18:52.157Z,69.26
2022-12-10T12:21:20.113Z,69.57
2022-12-10T12:24:42.502Z,69.23
2022-12-10T12:27:28.241Z,69.94
2022-12-10T12:30:13.684Z,69.89
2022-12-10T12:32:49.271Z,70.11
2022-12-10T12:35:39.869Z,70.18
2022-12-10T12:38:42.861Z,70.18
2022-12-10T12:41:27.854Z,70.34
2022-12-10T12:44:31.193Z,71.22
2022-12-10T12:47:03.943Z,70.71
2022-12-10T12:49:36.786Z,70.06
2022-12-10T12:52:10.887Z,70.42
2022-12-10T12:54:38.243Z,70.76
2022-12-10T12:57:23.422Z,70.81
2022-12-10T13:00:05.120Z,70.48
2022-12-10T13:02:46.224Z,71.17
2022-12-10T13:05:34.323Z,71.32
2022-12-10T13:08:19.595Z,71.04
2022-12-10T13:11:01.083Z,71.15
2022-12-10T13:13:37.706Z,71.48
2022-12-10T13:16:23.087Z,71.49
2022-12-10T13:18:50.337Z,71.65
2022-12-10T13:21:29.129Z,71.62
2022-12-10T13:24:08.503Z,71.87
2022-12-10T13:26:35.680Z,71.44
2022-12-10T13:29:27.262Z,71.89
2022-12-10T13:32:04.665Z,72.15
2022-12-10T13:34:35.140Z,72.04
2022-12-10T13:37:01.999Z,72.00
2022-12-10T13:39:36.267Z,72.20
2022-12-10T13:42:24.774Z,72.01
2022-12-10T13:45:01.438Z,71.78
2022-12-10T13:47:33.712Z,72.17
2022-12-10T13:50:03.613Z,72.36
2022-12-10T13:52:41.647Z,72.51
2022-12-10T13:55:21.522Z,73.00
2022-12-10T13:58:00.554Z,72.42
2022-12-10T14:00:50.964Z,72.59
2022-12-10T14:03:39.472Z,72.81
2022-12-10T14:06:25.995Z,73.01
2022-12-10T14:09:05.266Z,73.23
2022-12-10T14:11:38.207Z,73.05
2022-12-10T14:14:11.288Z,72.99
2022-12-10T14:16:41.166Z,72.81
2022-12-10T14:19:13.961Z,73.15
2022-12-10T14:21:48.076Z,72.85
2022-12-10T14:24:39.951Z,72.76
2022-12-10T14:27:18.934Z,72.70
2022-12-10T14:29:51.333Z,72.75
2022-12-10T14:32:22.552Z,72.80
2022-12-10T14:34:58.963Z,72.90
2022-12-10T14:37:32.431Z,72.98
2022-12-10T14:39:59.942Z,73.00
2022-12-10T14:42:28.157Z,72.95
2022-12-10T14:45:01.904Z,72.79
2022-12-10T14:47:34.288Z,72.79
2022-12-10T14:50:02.152Z,72.81
2022-12-10T14:52:40.169Z,72.48
2022-12-10T14:55:07.731Z,72.39
2022-12-10T14:57:50.170Z,72.22
2022-12-10T15:00:20.869Z,71.88
2022-12-10T15:02:57.641Z,71.83
2022-12-10T15:05:28.321Z,71.88
2022-12-10T15:08:20.562Z,71.81
2022-12-10T15:10:57.516Z,71.94
2022-12-10T15:13:40.506Z,72.16
2022-12-10T15:16:15.995Z,72.36
2022-12-10T15:18:44.634Z,72.58
2022-12-10T15:21:18.453Z,72.65
2022-12-10T15:23:47.194Z,72.89
2022-12-10T15:26:28.223Z,73.67
2022-12-10T15:29:27.796Z,73.22
2022-12-10T15:31:59.037Z,73.16
2022-12-10T15:34:40.242Z,73.31
2022-12-10T15:37:16.114Z,73.54
2022-12-10T15:39:50.059Z,73.37
2022-12-10T15:42:42.837Z,73.30
2022-12-10T15:45:29.147Z,73.61
2022-12-10T15:48:03.638Z,73.91
2022-12-10T15:50:32.933Z,74.00
2022-12-10T15:53:00.180Z,74.47
2022-12-10T15:55:27.856Z,74.58
2022-12-10T15:57:55.066Z,74.86
2022-12-10T16:00:28.701Z,74.71
2022-12-10T16:03:04.234Z,74.54
2022-12-10T16:05:36.750Z,74.56
2022-12-10T16:08:21.021Z,75.04
2022-12-10T16:10:51.407Z,75.06
2022-12-10T16:13:27.149Z,75.61
2022-12-10T16:15:58.656Z,75.54
2022-12-10T16:18:30.573Z,75.58
2022-12-10T16:21:00.580Z,75.84
2022-12-10T16:23:27.659Z,76.11
2022-12-10T16:25:54.738Z,76.08
2022-12-10T16:28:23.499Z,76.22
2022-12-10T16:31:01.508Z,76.36
2022-12-10T16:33:29.203Z,76.42
2022-12-10T16:35:58.566Z,76.44
2022-12-10T16:38:26.950Z,76.37
2022-12-10T16:40:54.299Z,76.57
2022-12-10T16:43:27.121Z,76.85
2022-12-10T16:45:54.871Z,76.65
2022-12-10T16:48:22.968Z,76.70
2022-12-10T16:50:52.775Z,76.82
2022-12-10T16:53:24.019Z,78.23
2022-12-10T16:55:51.565Z,79.41
2022-12-10T16:58:19.421Z,79.50
2022-12-10T17:00:53.303Z,80.03
2022-12-10T17:03:25.161Z,80.27
2022-12-10T17:06:05.182Z,80.45
2022-12-10T17:08:32.483Z,79.85
2022-12-10T17:11:18.282Z,79.89
2022-12-10T17:13:46.678Z,80.29
2022-12-10T17:16:23.533Z,80.47
2022-12-10T17:18:51.330Z,80.41
2022-12-10T17:21:19.420Z,80.46
2022-12-10T17:26:36.300Z,80.49
2022-12-10T17:31:40.838Z,80.30
2022-12-10T17:34:12.349Z,80.70
2022-12-10T17:36:41.338Z,80.00
2022-12-10T17:41:54.643Z,80.71
2022-12-10T17:46:57.033Z,81.62
2022-12-10T17:49:24.073Z,81.80
2022-12-10T17:51:51.235Z,82.39
2022-12-10T17:54:18.633Z,83.02
2022-12-10T17:56:49.042Z,83.35
2022-12-10T17:59:16.182Z,83.23
2022-12-10T18:01:48.568Z,83.42
2022-12-10T18:04:16.306Z,83.39
2022-12-10T18:06:44.051Z,83.56
2022-12-10T18:09:14.689Z,83.30
2022-12-10T18:11:44.819Z,83.76
2022-12-10T18:14:19.763Z,83.44
2022-12-10T18:16:48.053Z,83.51
2022-12-10T18:19:16.453Z,83.61
2022-12-10T18:21:47.000Z,82.23
2022-12-10T18:24:17.895Z,81.58
2022-12-10T18:26:45.475Z,81.74
2022-12-10T18:29:16.234Z,81.48
2022-12-10T18:31:45.593Z,81.80
2022-12-10T18:34:15.561Z,81.84
2022-12-10T18:36:44.991Z,81.81
2022-12-10T18:39:25.681Z,82.04
2022-12-10T18:41:54.036Z,81.97
2022-12-10T18:44:24.648Z,81.55
2022-12-10T18:46:53.428Z,81.16
2022-12-10T18:49:21.649Z,80.60
2022-12-10T18:51:48.822Z,80.78
2022-12-10T18:54:16.076Z,80.95
2022-12-10T18:56:45.230Z,81.13
2022-12-10T18:59:19.533Z,81.18
2022-12-10T19:01:47.016Z,81.39
2022-12-10T19:04:15.080Z,81.45
2022-12-10T19:06:43.572Z,81.42
2022-12-10T19:09:18.604Z,81.52
2022-12-10T19:11:48.835Z,81.54
2022-12-10T19:14:16.811Z,81.75
2022-12-10T19:16:44.263Z,81.79
2022-12-10T19:19:13.202Z,82.13
2022-12-10T19:21:40.741Z,82.33
2022-12-10T19:24:08.801Z,82.19
2022-12-10T19:26:38.606Z,82.26
2022-12-10T19:31:41.777Z,82.43
2022-12-10T19:34:09.025Z,82.46
2022-12-10T19:36:39.460Z,82.71
2022-12-10T19:39:06.805Z,82.83
2022-12-10T19:41:36.964Z,82.75
2022-12-10T19:44:04.601Z,82.41
2022-12-10T19:46:32.089Z,82.73
2022-12-10T19:49:02.221Z,83.24
2022-12-10T19:51:29.786Z,83.36
2022-12-10T19:53:57.913Z,83.27
2022-12-10T19:56:30.462Z,84.05
2022-12-10T19:59:00.136Z,84.55
2022-12-10T20:01:28.804Z,84.95
2022-12-10T20:03:57.098Z,85.57
2022-12-10T20:06:32.707Z,85.61
2022-12-10T20:09:03.584Z,86.13
2022-12-10T20:11:30.753Z,86.09
2022-12-10T20:13:58.217Z,85.75
2022-12-10T20:16:30.217Z,86.00
2022-12-10T20:18:58.736Z,86.20
2022-12-10T20:21:26.454Z,86.18
2022-12-10T20:23:58.351Z,86.22
2022-12-10T20:26:36.462Z,85.77
2022-12-10T20:29:05.178Z,85.85
2022-12-10T20:31:32.241Z,86.31
2022-12-10T20:33:59.702Z,86.38
2022-12-10T20:36:28.162Z,86.02
2022-12-10T20:38:55.303Z,86.75
2022-12-10T20:41:22.517Z,86.91
2022-12-10T20:43:51.732Z,86.82
2022-12-10T20:46:24.983Z,86.64
2022-12-10T20:48:52.481Z,87.43
2022-12-10T20:51:19.990Z,87.64
2022-12-10T20:53:48.186Z,88.10
2022-12-10T20:56:18.534Z,88.31
2022-12-10T20:58:46.797Z,88.45
2022-12-10T21:01:15.177Z,88.73
2022-12-10T21:03:45.288Z,89.02
2022-12-10T21:06:25.729Z,89.01
2022-12-10T21:08:54.014Z,89.51
2022-12-10T21:11:31.538Z,89.78
2022-12-10T21:13:58.863Z,89.50
2022-12-10T21:16:29.471Z,89.48
2022-12-10T21:18:57.253Z,89.74
2022-12-10T21:21:27.217Z,89.96
2022-12-10T21:23:58.885Z,89.90
2022-12-10T21:26:26.590Z,89.91
2022-12-10T21:28:54.016Z,90.43
2022-12-10T21:31:24.306Z,90.56
2022-12-10T21:33:52.037Z,90.82
2022-12-10T21:36:23.751Z,90.53
2022-12-10T21:38:52.685Z,90.77
2022-12-10T21:41:44.159Z,91.00
2022-12-10T21:44:12.158Z,91.63
2022-12-10T21:46:40.466Z,92.07
2022-12-10T21:49:08.941Z,92.56
2022-12-10T21:51:40.028Z,93.21
2022-12-10T21:54:09.023Z,95.92
2022-12-10T21:56:36.997Z,95.96
2022-12-10T21:59:04.730Z,96.61
2022-12-10T22:01:32.132Z,97.46
2022-12-10T22:03:59.243Z,98.96
2022-12-10T22:06:28.438Z,99.18
2022-12-10T22:08:56.418Z,98.47
2022-12-10T22:11:23.471Z,99.26
2022-12-10T22:13:54.397Z,100.00
2022-12-10T22:16:21.681Z,100.00
2022-12-10T22:18:48.910Z,100.00
2022-12-10T22:21:21.874Z,100.00
2022-12-10T22:23:49.048Z,100.00
2022-12-10T22:26:16.155Z,100.00
2022-12-10T22:28:43.159Z,100.00
2022-12-10T22:33:33.708Z,100.00
2022-12-10T22:36:00.902Z,100.00
2022-12-10T22:38:28.347Z,100.00
2022-12-10T22:40:55.575Z,100.00
2022-12-10T22:43:49.888Z,100.00
2022-12-10T22:46:13.055Z,100.00
2022-12-10T22:48:40.766Z,100.00
2022-12-10T22:51:08.461Z,100.00
2022-12-10T22:53:36.221Z,100.00
2022-12-10T22:56:06.213Z,100.00
2022-12-10T22:58:33.927Z,100.00
2022-12-10T23:01:01.703Z,100.00
2022-12-10T23:03:29.467Z,100.00
2022-12-10T23:05:57.081Z,100.00
2022-12-10T23:08:25.074Z,100.00
2022-12-10T23:10:52.782Z,100.00
2022-12-10T23:13:22.848Z,100.00
2022-12-10T23:15:51.461Z,100.00
2022-12-10T23:18:19.708Z,100.00
2022-12-10T23:20:50.155Z,100.00
2022-12-10T23:23:19.469Z,100.00
2022-12-10T23:25:46.991Z,100.00
2022-12-10T23:28:15.175Z,100.00
2022-12-10T23:30:42.955Z,100.00
2022-12-10T23:33:10.691Z,100.00
2022-12-10T23:35:44.083Z,100.00
2022-12-10T23:38:11.850Z,100.00
2022-12-10T23:40:44.129Z,100.00
2022-12-10T23:43:12.983Z,100.00
2022-12-10T23:45:43.980Z,100.00
2022-12-10T23:48:11.341Z,100.00
2022-12-10T23:50:39.071Z,100.00
2022-12-10T23:53:06.862Z,100.00
2022-12-10T23:55:33.955Z,100.00
2022-12-10T23:58:01.163Z,100.00
